createdAt,value
2018-08-07T03:01:02.837Z,0.00
2018-08-07T03:02:02.997Z,0.00
2018-08-07T03:04:03.896Z,0.00
2018-08-07T03:05:04.278Z,0.00
2018-08-07T03:06:03.841Z,0.00
2018-08-07T03:07:05.587Z,0.00
2018-08-07T03:08:02.177Z,0.00
2018-08-07T03:09:02.037Z,0.00
2018-08-07T03:10:02.047Z,0.00
2018-08-07T03:11:02.267Z,0.00
2018-08-07T03:12:02.490Z,0.00
2018-08-07T03:13:02.682Z,0.00
2018-08-07T03:14:02.839Z,0.00
2018-08-07T03:15:02.950Z,0.00
2018-08-07T03:16:03.109Z,0.00
2018-08-07T03:17:03.279Z,0.00
2018-08-07T03:18:03.540Z,0.00
2018-08-07T03:19:03.617Z,0.00
2018-08-07T03:20:03.850Z,0.00
2018-08-07T03:21:03.953Z,0.00
2018-08-07T03:22:04.128Z,0.00
2018-08-07T03:23:04.338Z,4.00
2018-08-07T03:24:04.380Z,4.00
2018-08-07T03:25:04.700Z,4.00
2018-08-07T03:26:04.732Z,0.00
2018-08-07T03:27:04.968Z,4.00
2018-08-07T03:28:05.250Z,8.00
2018-08-07T03:29:05.262Z,4.00
2018-08-07T03:30:05.520Z,4.00
2018-08-07T03:31:05.720Z,8.00
2018-08-07T03:32:05.875Z,8.00
2018-08-07T03:33:05.948Z,12.00
2018-08-07T03:34:06.191Z,8.00
2018-08-07T03:35:06.337Z,12.00
2018-08-07T03:36:06.649Z,16.00
2018-08-07T03:37:06.836Z,16.00
2018-08-07T03:38:06.888Z,20.00
2018-08-07T03:39:07.150Z,24.00
2018-08-07T03:40:07.235Z,28.00
2018-08-07T03:41:07.517Z,36.00
2018-08-07T03:42:07.742Z,40.00
2018-08-07T03:43:07.792Z,44.00
2018-08-07T03:44:08.089Z,52.00
2018-08-07T03:45:08.195Z,56.00
2018-08-07T03:46:08.332Z,60.00
2018-08-07T03:47:08.644Z,72.00
2018-08-07T03:48:08.742Z,80.00
2018-08-07T03:49:08.936Z,88.00
2018-08-07T03:50:09.126Z,96.00
2018-08-07T03:51:09.330Z,108.00
2018-08-07T03:52:09.474Z,120.00
2018-08-07T03:53:09.673Z,132.00
2018-08-07T03:54:09.797Z,148.00
2018-08-07T03:55:10.004Z,160.00
2018-08-07T03:56:10.089Z,172.00
2018-08-07T03:57:10.401Z,188.00
2018-08-07T03:58:10.590Z,200.00
2018-08-07T03:59:10.728Z,220.00
2018-08-07T04:00:10.947Z,236.00
2018-08-07T04:01:11.774Z,252.00
2018-08-07T04:02:11.266Z,272.00
2018-08-07T04:03:11.315Z,292.00
2018-08-07T04:04:11.727Z,316.00
2018-08-07T04:05:11.810Z,332.00
2018-08-07T04:06:11.911Z,356.00
2018-08-07T04:07:12.062Z,380.00
2018-08-07T04:08:12.273Z,404.00
2018-08-07T04:09:12.448Z,432.00
2018-08-07T04:10:12.634Z,460.00
2018-08-07T04:11:12.851Z,484.00
2018-08-07T04:12:12.902Z,508.00
2018-08-07T04:13:13.100Z,540.00
2018-08-07T04:14:13.411Z,564.00
2018-08-07T04:15:13.490Z,596.00
2018-08-07T04:16:13.647Z,624.00
2018-08-07T04:17:13.747Z,656.00
2018-08-07T04:18:14.059Z,688.00
2018-08-07T04:19:14.130Z,724.00
2018-08-07T04:20:14.252Z,760.00
2018-08-07T04:21:14.501Z,792.00
2018-08-07T04:22:14.779Z,820.00
2018-08-07T04:23:14.825Z,844.00
2018-08-07T04:24:15.099Z,876.00
2018-08-07T04:25:15.145Z,912.00
2018-08-07T04:26:15.316Z,948.00
2018-08-07T04:27:15.611Z,988.00
2018-08-07T04:28:15.604Z,1024.00
2018-08-07T04:29:15.865Z,1060.00
2018-08-07T04:30:16.088Z,1104.00
2018-08-07T04:31:16.115Z,1144.00
2018-08-07T04:32:16.370Z,1184.00
2018-08-07T04:33:16.502Z,1232.00
2018-08-07T04:34:16.759Z,1284.00
2018-08-07T04:35:17.556Z,1336.00
2018-08-07T04:36:17.069Z,1372.00
2018-08-07T04:37:17.271Z,1396.00
2018-08-07T04:38:17.545Z,1400.00
2018-08-07T04:39:17.611Z,1412.00
2018-08-07T04:40:17.833Z,1432.00
2018-08-07T04:41:17.940Z,1468.00
2018-08-07T04:42:18.090Z,1508.00
2018-08-07T04:43:18.285Z,1564.00
2018-08-07T04:44:18.409Z,1616.00
2018-08-07T04:45:18.555Z,1644.00
2018-08-07T04:46:18.719Z,1652.00
2018-08-07T04:47:18.913Z,1668.00
2018-08-07T04:48:19.098Z,1672.00
2018-08-07T04:49:19.293Z,1688.00
2018-08-07T04:50:19.355Z,1716.00
2018-08-07T04:51:19.569Z,1744.00
2018-08-07T04:52:19.720Z,1760.00
2018-08-07T04:53:19.881Z,1784.00
2018-08-07T04:54:20.099Z,1804.00
2018-08-07T04:55:20.167Z,1816.00
2018-08-07T04:56:20.413Z,1840.00
2018-08-07T04:57:20.547Z,1872.00
2018-08-07T04:58:20.861Z,1912.00
2018-08-07T04:59:20.908Z,1944.00
2018-08-07T05:00:21.137Z,1988.00
2018-08-07T05:01:21.291Z,2032.00
2018-08-07T05:02:21.441Z,2080.00
2018-08-07T05:03:21.536Z,2116.00
2018-08-07T05:04:21.733Z,2152.00
2018-08-07T05:05:23.347Z,2184.00
2018-08-07T05:06:22.229Z,2208.00
2018-08-07T05:07:22.591Z,2236.00
2018-08-07T05:08:22.566Z,2268.00
2018-08-07T05:09:22.786Z,2304.00
2018-08-07T05:10:23.977Z,2340.00
2018-08-07T05:11:23.280Z,2360.00
2018-08-07T05:12:25.259Z,2372.00
2018-08-07T05:13:23.492Z,2380.00
2018-08-07T05:14:23.644Z,2396.00
2018-08-07T05:15:23.880Z,2416.00
2018-08-07T05:16:23.960Z,2440.00
2018-08-07T05:17:24.288Z,2472.00
2018-08-07T05:18:28.119Z,2508.00
2018-08-07T05:19:27.066Z,2548.00
2018-08-07T05:20:38.393Z,2604.00
2018-08-07T05:21:27.698Z,2644.00
2018-08-07T05:22:29.058Z,2660.00
2018-08-07T05:23:27.711Z,2668.00
2018-08-07T05:24:29.367Z,2676.00
2018-08-07T05:25:28.794Z,2684.00
2018-08-07T05:26:29.005Z,2708.00
2018-08-07T05:27:29.378Z,2728.00
2018-08-07T05:28:26.756Z,2736.00
2018-08-07T05:29:26.297Z,2740.00
2018-08-07T05:30:26.427Z,2772.00
2018-08-07T05:33:33.690Z,2844.00
2018-08-07T05:34:41.716Z,2864.00
2018-08-07T05:35:59.750Z,2876.00
2018-08-07T05:36:37.101Z,3016.00
2018-08-07T05:37:32.472Z,3144.00
2018-08-07T05:38:32.184Z,3244.00
2018-08-07T05:39:32.250Z,3256.00
2018-08-07T05:40:32.453Z,3264.00
2018-08-07T05:41:32.509Z,3400.00
2018-08-07T05:42:32.800Z,3456.00
2018-08-07T05:43:32.887Z,3352.00
2018-08-07T05:44:33.018Z,3492.00
2018-08-07T05:45:33.148Z,3612.00
2018-08-07T05:46:33.384Z,3560.00
2018-08-07T05:47:33.550Z,3616.00
2018-08-07T05:48:33.761Z,3632.00
2018-08-07T05:49:33.952Z,3716.00
2018-08-07T05:50:34.126Z,3612.00
2018-08-07T05:51:34.329Z,3508.00
2018-08-07T05:52:34.398Z,3492.00
2018-08-07T05:53:34.510Z,3508.00
2018-08-07T05:54:34.649Z,3440.00
2018-08-07T05:55:34.873Z,3532.00
2018-08-07T05:56:35.085Z,3708.00
2018-08-07T05:57:35.262Z,3708.00
2018-08-07T05:58:35.403Z,3728.00
2018-08-07T05:59:35.581Z,3752.00
2018-08-07T06:00:35.869Z,3760.00
2018-08-07T06:01:36.030Z,3776.00
2018-08-07T06:02:36.219Z,3780.00
2018-08-07T06:03:36.356Z,3768.00
2018-08-07T06:04:36.414Z,3772.00
2018-08-07T06:05:36.623Z,3756.00
2018-08-07T06:06:36.879Z,3716.00
2018-08-07T06:07:36.985Z,3724.00
2018-08-07T06:08:37.161Z,3660.00
2018-08-07T06:09:37.280Z,3580.00
2018-08-07T06:10:37.495Z,3692.00
2018-08-07T06:11:37.732Z,3684.00
2018-08-07T06:12:37.867Z,3932.00
2018-08-07T06:13:37.977Z,3900.00
2018-08-07T06:14:38.156Z,3744.00
2018-08-07T06:15:38.326Z,3656.00
2018-08-07T06:16:38.551Z,3784.00
2018-08-07T06:17:38.584Z,4120.00
2018-08-07T06:18:38.808Z,4096.00
2018-08-07T06:19:39.002Z,3912.00
2018-08-07T06:20:39.227Z,4220.00
2018-08-07T06:21:39.315Z,4260.00
2018-08-07T06:22:39.552Z,4288.00
2018-08-07T06:23:39.678Z,4308.00
2018-08-07T06:24:39.897Z,4284.00
2018-08-07T06:25:39.936Z,4300.00
2018-08-07T06:26:40.276Z,4316.00
2018-08-07T06:27:40.406Z,4336.00
2018-08-07T06:28:40.573Z,4324.00
2018-08-07T06:29:40.686Z,4316.00
2018-08-07T06:30:40.818Z,4332.00
2018-08-07T06:31:41.075Z,4340.00
2018-08-07T06:32:41.390Z,4348.00
2018-08-07T06:33:41.445Z,4324.00
2018-08-07T06:34:41.646Z,4312.00
2018-08-07T06:35:41.887Z,4300.00
2018-08-07T06:36:41.957Z,4300.00
2018-08-07T06:37:42.259Z,4284.00
2018-08-07T06:38:42.229Z,4268.00
2018-08-07T06:39:42.412Z,4288.00
2018-08-07T06:40:42.702Z,4276.00
2018-08-07T06:41:42.724Z,4292.00
2018-08-07T06:42:44.387Z,4320.00
2018-08-07T06:43:43.299Z,4304.00
2018-08-07T06:46:19.115Z,4324.00
2018-08-07T06:47:19.229Z,4372.00
2018-08-07T06:48:17.703Z,4408.00
2018-08-07T06:49:18.574Z,4448.00
2018-08-07T06:50:17.603Z,4468.00
2018-08-07T06:51:17.812Z,4492.00
2018-08-07T06:52:17.913Z,4500.00
2018-08-07T06:53:18.067Z,4508.00
2018-08-07T06:54:18.228Z,4504.00
2018-08-07T06:55:18.487Z,4508.00
2018-08-07T06:56:18.654Z,4528.00
2018-08-07T06:57:18.743Z,4536.00
2018-08-07T06:58:18.873Z,4544.00
2018-08-07T06:59:19.092Z,4556.00
2018-08-07T07:00:19.240Z,4568.00
2018-08-07T07:01:19.454Z,4560.00
2018-08-07T07:02:19.647Z,4592.00
2018-08-07T07:03:19.796Z,4608.00
2018-08-07T07:04:19.990Z,4628.00
2018-08-07T07:05:20.204Z,4640.00
2018-08-07T07:06:20.439Z,4648.00
2018-08-07T07:07:20.587Z,4660.00
2018-08-07T07:08:20.784Z,4668.00
2018-08-07T07:09:20.930Z,4676.00
2018-08-07T07:10:21.158Z,4688.00
2018-08-07T07:11:21.248Z,4684.00
2018-08-07T07:12:21.456Z,4692.00
2018-08-07T07:13:21.624Z,4700.00
2018-08-07T07:14:21.824Z,4712.00
2018-08-07T07:15:21.971Z,4732.00
2018-08-07T07:16:22.139Z,4740.00
2018-08-07T07:17:22.370Z,4748.00
2018-08-07T07:18:22.470Z,4756.00
2018-08-07T07:19:22.656Z,4768.00
2018-08-07T07:20:22.891Z,4776.00
2018-08-07T07:21:23.056Z,4792.00
2018-08-07T07:22:23.246Z,4808.00
2018-08-07T07:23:23.335Z,4820.00
2018-08-07T07:24:23.520Z,4848.00
2018-08-07T07:25:23.793Z,4856.00
2018-08-07T07:26:23.928Z,4868.00
2018-08-07T07:27:24.070Z,4880.00
2018-08-07T07:28:24.203Z,4896.00
2018-08-07T07:29:24.435Z,4916.00
2018-08-07T07:30:24.514Z,4932.00
2018-08-07T07:31:24.759Z,4944.00
2018-08-07T07:32:24.903Z,4964.00
2018-08-07T07:33:25.062Z,4976.00
2018-08-07T07:34:25.265Z,4988.00
2018-08-07T07:35:25.500Z,5004.00
2018-08-07T07:36:25.605Z,5016.00
2018-08-07T07:37:25.814Z,5032.00
2018-08-07T07:38:26.001Z,5040.00
2018-08-07T07:39:26.202Z,5060.00
2018-08-07T07:40:26.407Z,5072.00
2018-08-07T07:41:26.470Z,5100.00
2018-08-07T07:42:26.766Z,5120.00
2018-08-07T07:43:26.972Z,5156.00
2018-08-07T07:44:27.110Z,5168.00
2018-08-07T07:45:27.312Z,5196.00
2018-08-07T07:46:27.475Z,5224.00
2018-08-07T07:47:27.728Z,5260.00
2018-08-07T07:48:27.877Z,5284.00
2018-08-07T07:49:28.062Z,5320.00
2018-08-07T07:50:28.263Z,5352.00
2018-08-07T07:51:28.356Z,5388.00
2018-08-07T07:52:28.522Z,5424.00
2018-08-07T07:53:28.689Z,5456.00
2018-08-07T07:54:28.973Z,5496.00
2018-08-07T07:55:29.078Z,5540.00
2018-08-07T07:56:29.206Z,5612.00
2018-08-07T07:57:29.444Z,5688.00
2018-08-07T07:58:29.710Z,5760.00
2018-08-07T07:59:29.840Z,5848.00
2018-08-07T08:00:29.955Z,5992.00
2018-08-07T08:01:30.154Z,6188.00
2018-08-07T08:02:30.395Z,6332.00
2018-08-07T08:03:30.507Z,6420.00
2018-08-07T08:04:30.754Z,6516.00
2018-08-07T08:05:30.895Z,6592.00
2018-08-07T08:06:31.080Z,6688.00
2018-08-07T08:07:31.219Z,6776.00
2018-08-07T08:08:31.432Z,6852.00
2018-08-07T08:09:31.536Z,6944.00
2018-08-07T08:10:31.737Z,7052.00
2018-08-07T08:11:32.019Z,7180.00
2018-08-07T08:12:32.153Z,7332.00
2018-08-07T08:13:32.321Z,7484.00
2018-08-07T08:14:32.479Z,7616.00
2018-08-07T08:15:32.606Z,7684.00
2018-08-07T08:16:32.775Z,7736.00
2018-08-07T08:17:32.932Z,7828.00
2018-08-07T08:18:33.157Z,7920.00
2018-08-07T08:19:33.368Z,7992.00
2018-08-07T08:20:33.538Z,8132.00
2018-08-07T08:21:33.691Z,8228.00
2018-08-07T08:22:33.911Z,8352.00
2018-08-07T08:23:33.998Z,8488.00
2018-08-07T08:24:34.175Z,8584.00
2018-08-07T08:25:34.331Z,8696.00
2018-08-07T08:26:34.512Z,8836.00
2018-08-07T08:27:34.793Z,8916.00
2018-08-07T08:28:34.928Z,8996.00
2018-08-07T08:29:35.211Z,9096.00
2018-08-07T08:30:35.282Z,9200.00
2018-08-07T08:31:35.403Z,9348.00
2018-08-07T08:32:35.561Z,9500.00
2018-08-07T08:33:35.791Z,9632.00
2018-08-07T08:34:35.937Z,9756.00
2018-08-07T08:35:36.234Z,9884.00
2018-08-07T08:36:36.257Z,10064.00
2018-08-07T08:37:36.525Z,10164.00
2018-08-07T08:38:36.649Z,10324.00
2018-08-07T08:39:36.852Z,10472.00
2018-08-07T08:40:37.075Z,10644.00
2018-08-07T08:41:37.211Z,10844.00
2018-08-07T08:42:37.413Z,11040.00
2018-08-07T08:43:37.604Z,11356.00
2018-08-07T08:44:37.741Z,11684.00
2018-08-07T08:45:37.916Z,11964.00
2018-08-07T08:46:38.150Z,11780.00
2018-08-07T08:47:38.303Z,11252.00
2018-08-07T08:48:38.549Z,11160.00
2018-08-07T08:49:38.645Z,10808.00
2018-08-07T08:50:38.831Z,10084.00
2018-08-07T08:51:38.994Z,9692.00
2018-08-07T08:52:39.105Z,9756.00
2018-08-07T08:53:39.305Z,9776.00
2018-08-07T08:54:39.524Z,9792.00
2018-08-07T08:55:39.712Z,9820.00
2018-08-07T08:56:39.849Z,9924.00
2018-08-07T08:57:40.082Z,10120.00
2018-08-07T08:58:40.250Z,10324.00
2018-08-07T08:59:40.432Z,10628.00
2018-08-07T09:00:40.618Z,10888.00
2018-08-07T09:01:40.820Z,11180.00
2018-08-07T09:02:40.996Z,11344.00
2018-08-07T09:03:41.144Z,11200.00
2018-08-07T09:04:41.230Z,11248.00
2018-08-07T09:05:41.491Z,11256.00
2018-08-07T09:06:41.665Z,11548.00
2018-08-07T09:07:41.798Z,11640.00
2018-08-07T09:08:41.922Z,11716.00
2018-08-07T09:09:42.151Z,11788.00
2018-08-07T09:10:42.466Z,11832.00
2018-08-07T09:17:22.821Z,12528.00
2018-08-07T09:17:43.583Z,12896.00
2018-08-07T09:18:43.672Z,13188.00
2018-08-07T09:19:43.825Z,13316.00
2018-08-07T09:20:44.031Z,13444.00
2018-08-07T09:21:44.135Z,13484.00
2018-08-07T09:22:44.350Z,12432.00
2018-08-07T09:23:44.567Z,13312.00
2018-08-07T09:24:44.699Z,13660.00
2018-08-07T09:25:45.095Z,13748.00
2018-08-07T09:26:45.067Z,14628.00
2018-08-07T09:27:45.264Z,18048.00
2018-08-07T09:28:45.343Z,22752.00
2018-08-07T09:29:45.598Z,27040.00
2018-08-07T09:30:45.727Z,26912.00
2018-08-07T09:31:45.999Z,27648.00
2018-08-07T09:32:46.134Z,27040.00
2018-08-07T09:33:46.326Z,24032.00
2018-08-07T09:34:46.469Z,28288.00
2018-08-07T09:35:46.608Z,28832.00
2018-08-07T09:36:46.770Z,29280.00
2018-08-07T09:37:46.960Z,29952.00
2018-08-07T09:38:47.090Z,29440.00
2018-08-07T09:39:47.331Z,28384.00
2018-08-07T09:40:47.433Z,23616.00
2018-08-07T09:41:47.607Z,19520.00
2018-08-07T09:42:47.890Z,18112.00
2018-08-07T09:43:48.001Z,21952.00
2018-08-07T09:44:48.154Z,19616.00
2018-08-07T09:45:48.326Z,17248.00
2018-08-07T09:46:48.540Z,14768.00
2018-08-07T09:47:48.696Z,20768.00
2018-08-07T09:48:48.920Z,28256.00
2018-08-07T09:49:49.108Z,28352.00
2018-08-07T09:50:49.202Z,30784.00
2018-08-07T09:51:49.490Z,27584.00
2018-08-07T09:52:49.558Z,23680.00
2018-08-07T09:53:49.744Z,30176.00
2018-08-07T09:54:49.903Z,29952.00
2018-08-07T09:55:50.112Z,33792.00
2018-08-07T09:56:50.279Z,38272.00
2018-08-07T09:57:50.464Z,38560.00
2018-08-07T09:58:50.572Z,37824.00
2018-08-07T09:59:50.798Z,38304.00
2018-08-07T10:00:50.960Z,36320.00
2018-08-07T10:01:51.102Z,21760.00
2018-08-07T10:02:51.295Z,15456.00
2018-08-07T10:03:51.466Z,27808.00
2018-08-07T10:04:51.649Z,38752.00
2018-08-07T10:05:51.755Z,38944.00
2018-08-07T10:06:52.004Z,39360.00
2018-08-07T10:07:52.181Z,39808.00
2018-08-07T10:08:52.362Z,38656.00
2018-08-07T10:09:52.521Z,36800.00
2018-08-07T10:10:52.742Z,41152.00
2018-08-07T10:11:52.890Z,39232.00
2018-08-07T10:12:53.095Z,41728.00
2018-08-07T10:13:53.253Z,43168.00
2018-08-07T10:14:53.521Z,44192.00
2018-08-07T10:15:53.562Z,44928.00
2018-08-07T10:16:54.524Z,46048.00
2018-08-07T10:17:53.917Z,47200.00
2018-08-07T10:18:54.055Z,46688.00
2018-08-07T10:19:54.289Z,44352.00
2018-08-07T10:20:54.468Z,42880.00
2018-08-07T10:21:54.622Z,43264.00
2018-08-07T10:22:54.825Z,38688.00
2018-08-07T10:23:55.047Z,46368.00
2018-08-07T10:24:55.206Z,46688.00
2018-08-07T10:25:55.341Z,46560.00
2018-08-07T10:26:55.557Z,47104.00
2018-08-07T10:27:55.795Z,47744.00
2018-08-07T10:28:55.848Z,38944.00
2018-08-07T10:29:56.100Z,42752.00
2018-08-07T10:30:56.189Z,47840.00
2018-08-07T10:31:56.450Z,49216.00
2018-08-07T10:32:56.654Z,50432.00
2018-08-07T10:33:56.819Z,50144.00
2018-08-07T10:34:56.978Z,51168.00
2018-08-07T10:35:57.134Z,51712.00
2018-08-07T10:36:57.326Z,51520.00
2018-08-07T10:37:57.499Z,51072.00
2018-08-07T10:38:57.702Z,52192.00
2018-08-07T10:39:57.872Z,53408.00
2018-08-07T10:40:58.112Z,54080.00
2018-08-07T10:41:58.221Z,54720.00
2018-08-07T10:42:58.427Z,54560.00
2018-08-07T10:43:58.550Z,52864.00
2018-08-07T10:44:58.766Z,53216.00
2018-08-07T10:45:58.970Z,52704.00
2018-08-07T10:46:59.108Z,52928.00
2018-08-07T10:47:59.367Z,53888.00
2018-08-07T10:48:59.473Z,53984.00
2018-08-07T10:49:59.675Z,54048.00
2018-08-07T10:50:59.855Z,54272.00
2018-08-07T10:52:00.016Z,55520.00
2018-08-07T10:53:00.169Z,57184.00
2018-08-07T10:54:00.357Z,56800.00
2018-08-07T10:55:00.555Z,57024.00
2018-08-07T10:56:00.748Z,60576.00
2018-08-07T10:57:00.901Z,61024.00
2018-08-07T10:58:01.188Z,56256.00
2018-08-07T10:59:01.328Z,56160.00
2018-08-07T11:00:01.493Z,56256.00
2018-08-07T11:01:01.696Z,57152.00
2018-08-07T11:02:01.914Z,57600.00
2018-08-07T11:03:01.982Z,58464.00
2018-08-07T11:04:02.199Z,60960.00
2018-08-07T11:05:02.356Z,61760.00
2018-08-07T11:06:02.490Z,62272.00
2018-08-07T11:07:02.698Z,63456.00
2018-08-07T11:08:02.865Z,63968.00
2018-08-07T11:09:03.013Z,62624.00
2018-08-07T11:10:03.300Z,60672.00
2018-08-07T11:11:03.534Z,59488.00
2018-08-07T11:12:03.645Z,59840.00
2018-08-07T11:13:03.770Z,60384.00
2018-08-07T11:14:03.958Z,63456.00
2018-08-07T11:15:04.200Z,64864.00
2018-08-07T11:16:04.367Z,66304.00
2018-08-07T11:17:04.498Z,64608.00
2018-08-07T11:18:04.691Z,66880.00
2018-08-07T11:19:04.904Z,68000.00
2018-08-07T11:20:05.030Z,67424.00
2018-08-07T11:21:05.270Z,48320.00
2018-08-07T11:22:05.442Z,57536.00
2018-08-07T11:23:05.660Z,28128.00
2018-08-07T11:24:05.762Z,31392.00
2018-08-07T11:25:06.025Z,70432.00
2018-08-07T11:26:06.139Z,72640.00
2018-08-07T11:27:06.362Z,47104.00
2018-08-07T11:28:06.543Z,62848.00
2018-08-07T11:29:06.692Z,67712.00
2018-08-07T11:30:06.837Z,68128.00
2018-08-07T11:31:07.058Z,33536.00
2018-08-07T11:32:07.245Z,24416.00
2018-08-07T11:33:07.395Z,54848.00
2018-08-07T11:34:07.576Z,71040.00
2018-08-07T11:35:07.800Z,64384.00
2018-08-07T11:36:07.938Z,24960.00
2018-08-07T11:37:08.151Z,75584.00
2018-08-07T11:38:08.353Z,68032.00
2018-08-07T11:39:08.543Z,26528.00
2018-08-07T11:40:08.734Z,60864.00
2018-08-07T11:41:08.941Z,60896.00
2018-08-07T11:42:09.071Z,73472.00
2018-08-07T11:43:09.174Z,73120.00
2018-08-07T11:44:09.419Z,54848.00
2018-08-07T11:45:09.614Z,23136.00
2018-08-07T11:46:09.768Z,28480.00
2018-08-07T11:47:10.017Z,73440.00
2018-08-07T11:48:10.189Z,73120.00
2018-08-07T11:49:10.374Z,71168.00
2018-08-07T11:50:10.557Z,69568.00
2018-08-07T11:51:10.764Z,59200.00
2018-08-07T11:52:10.857Z,67808.00
2018-08-07T11:53:11.187Z,36000.00
2018-08-07T11:54:11.287Z,68032.00
2018-08-07T11:55:11.483Z,69888.00
2018-08-07T11:56:11.689Z,39424.00
2018-08-07T11:57:11.831Z,20256.00
2018-08-07T11:58:11.998Z,25376.00
2018-08-07T11:59:12.120Z,59296.00
2018-08-07T12:00:12.329Z,23936.00
2018-08-07T12:01:12.532Z,23392.00
2018-08-07T12:02:12.692Z,22176.00
2018-08-07T12:03:12.887Z,34688.00
2018-08-07T12:04:13.041Z,75808.00
2018-08-07T12:05:13.251Z,59040.00
2018-08-07T12:06:13.392Z,73024.00
2018-08-07T12:07:13.626Z,74080.00
2018-08-07T12:08:13.825Z,76352.00
2018-08-07T12:09:13.931Z,55008.00
2018-08-07T12:10:14.171Z,72928.00
2018-08-07T12:11:14.357Z,74304.00
2018-08-07T12:12:14.547Z,72864.00
2018-08-07T12:13:14.630Z,71264.00
2018-08-07T12:14:14.873Z,72256.00
2018-08-07T12:15:15.051Z,73536.00
2018-08-07T12:16:15.191Z,73792.00
2018-08-07T12:17:15.430Z,73152.00
2018-08-07T12:18:15.587Z,72352.00
2018-08-07T12:19:15.738Z,71040.00
2018-08-07T12:20:15.878Z,70912.00
2018-08-07T12:21:16.164Z,69664.00
2018-08-07T12:23:51.610Z,77024.00
2018-08-07T12:24:51.779Z,76224.00
2018-08-07T12:25:52.070Z,75680.00
2018-08-07T12:26:51.924Z,78656.00
2018-08-07T12:27:51.531Z,77920.00
2018-08-07T12:28:53.899Z,79776.00
2018-08-07T12:29:50.502Z,78784.00
2018-08-07T12:30:50.692Z,74912.00
2018-08-07T12:31:50.779Z,72736.00
2018-08-07T12:32:50.941Z,70368.00
2018-08-07T12:33:51.264Z,62432.00
2018-08-07T12:34:51.368Z,71136.00
2018-08-07T12:35:51.503Z,73440.00
2018-08-07T12:36:51.702Z,40864.00
2018-08-07T12:37:51.988Z,61952.00
2018-08-07T12:38:52.125Z,71168.00
2018-08-07T12:39:52.285Z,72832.00
2018-08-07T12:40:52.472Z,78656.00
2018-08-07T12:41:52.675Z,75712.00
2018-08-07T12:42:52.824Z,71904.00
2018-08-07T12:43:53.063Z,73536.00
2018-08-07T12:44:53.220Z,78656.00
2018-08-07T12:45:53.434Z,73760.00
2018-08-07T12:46:53.560Z,65760.00
2018-08-07T12:47:53.756Z,17888.00
2018-08-07T12:48:53.989Z,15640.00
2018-08-07T12:49:54.157Z,16156.00
2018-08-07T12:50:54.307Z,14660.00
2018-08-07T12:51:54.474Z,13720.00
2018-08-07T12:52:54.719Z,13776.00
2018-08-07T12:53:54.934Z,13540.00
2018-08-07T12:54:55.122Z,63328.00
2018-08-07T12:55:55.297Z,13656.00
2018-08-07T12:56:55.439Z,12716.00
2018-08-07T12:57:55.678Z,12288.00
2018-08-07T12:58:55.892Z,12756.00
2018-08-07T12:59:56.072Z,13788.00
2018-08-07T13:00:56.243Z,14760.00
2018-08-07T13:01:56.432Z,15868.00
2018-08-07T13:02:56.658Z,17600.00
2018-08-07T13:03:56.723Z,23904.00
2018-08-07T13:04:56.982Z,50528.00
2018-08-07T13:05:57.233Z,55072.00
2018-08-07T13:06:57.360Z,67648.00
2018-08-07T13:07:57.492Z,77472.00
2018-08-07T13:08:57.719Z,21792.00
2018-08-07T13:09:57.881Z,24864.00
2018-08-07T13:10:58.081Z,63552.00
2018-08-07T13:11:58.193Z,53600.00
2018-08-07T13:12:58.342Z,50464.00
2018-08-07T13:13:58.603Z,70656.00
2018-08-07T13:14:58.735Z,72768.00
2018-08-07T13:15:58.918Z,71616.00
2018-08-07T13:16:59.052Z,73088.00
2018-08-07T13:17:59.338Z,73440.00
2018-08-07T13:18:59.487Z,72928.00
2018-08-07T13:19:59.656Z,69664.00
2018-08-07T13:20:59.835Z,66912.00
2018-08-07T13:21:59.945Z,70240.00
2018-08-07T13:23:00.177Z,75136.00
2018-08-07T13:24:00.405Z,74560.00
2018-08-07T13:25:00.562Z,64096.00
2018-08-07T13:26:00.717Z,64832.00
2018-08-07T13:27:00.891Z,64288.00
2018-08-07T13:28:01.075Z,68352.00
2018-08-07T13:29:01.326Z,70752.00
2018-08-07T13:30:01.530Z,74752.00
2018-08-07T13:31:01.612Z,47584.00
2018-08-07T13:32:01.866Z,70432.00
2018-08-07T13:33:02.006Z,72448.00
2018-08-07T13:34:02.195Z,72288.00
2018-08-07T13:35:02.434Z,76416.00
2018-08-07T13:36:02.599Z,79840.00
2018-08-07T13:37:02.830Z,34688.00
2018-08-07T13:38:02.900Z,66368.00
2018-08-07T13:39:03.182Z,74560.00
2018-08-07T13:40:03.334Z,75136.00
2018-08-07T13:41:03.584Z,20864.00
2018-08-07T13:42:03.718Z,23072.00
2018-08-07T13:43:03.903Z,17292.00
2018-08-07T13:44:03.980Z,16504.00
2018-08-07T13:45:04.262Z,15768.00
2018-08-07T13:46:04.472Z,16440.00
2018-08-07T13:47:04.550Z,17668.00
2018-08-07T13:48:04.795Z,18912.00
2018-08-07T13:49:05.021Z,69056.00
2018-08-07T13:50:05.218Z,68768.00
2018-08-07T13:51:05.398Z,70016.00
2018-08-07T13:52:05.506Z,70784.00
2018-08-07T13:53:05.727Z,74048.00
2018-08-07T13:54:05.839Z,72192.00
2018-08-07T13:55:06.053Z,69184.00
2018-08-07T13:56:06.226Z,66336.00
2018-08-07T13:57:06.420Z,68896.00
2018-08-07T13:58:06.600Z,71072.00
2018-08-07T13:59:06.801Z,71232.00
2018-08-07T14:00:06.972Z,69632.00
2018-08-07T14:01:07.065Z,71648.00
2018-08-07T14:02:07.375Z,72768.00
2018-08-07T14:03:07.502Z,73344.00
2018-08-07T14:04:07.625Z,67488.00
2018-08-07T14:05:07.817Z,68096.00
2018-08-07T14:06:08.076Z,54304.00
2018-08-07T14:07:08.786Z,60480.00
2018-08-07T14:08:09.390Z,47808.00
2018-08-07T14:09:08.630Z,37632.00
2018-08-07T14:10:08.785Z,40192.00
2018-08-07T14:11:08.937Z,44320.00
2018-08-07T14:12:09.148Z,44832.00
2018-08-07T14:13:09.374Z,47200.00
2018-08-07T14:14:09.581Z,46880.00
2018-08-07T14:15:09.683Z,47488.00
2018-08-07T14:16:09.927Z,58368.00
2018-08-07T14:17:10.004Z,60032.00
2018-08-07T14:18:10.232Z,65536.00
2018-08-07T14:19:10.416Z,67584.00
2018-08-07T14:20:10.716Z,52288.00
2018-08-07T14:21:10.819Z,42240.00
2018-08-07T14:22:11.111Z,40480.00
2018-08-07T14:23:11.169Z,47488.00
2018-08-07T14:24:11.347Z,71808.00
2018-08-07T14:25:11.583Z,62272.00
2018-08-07T14:26:11.668Z,57696.00
2018-08-07T14:27:11.928Z,62048.00
2018-08-07T14:28:12.091Z,66464.00
2018-08-07T14:29:12.224Z,65600.00
2018-08-07T14:30:12.452Z,65568.00
2018-08-07T14:31:12.630Z,17204.00
2018-08-07T14:32:12.866Z,18016.00
2018-08-07T14:33:13.006Z,63296.00
2018-08-07T14:34:13.293Z,67840.00
2018-08-07T14:35:13.412Z,69024.00
2018-08-07T14:36:13.664Z,67712.00
2018-08-07T14:37:13.744Z,67072.00
2018-08-07T14:38:13.846Z,64640.00
2018-08-07T14:39:14.076Z,64640.00
2018-08-07T14:40:14.336Z,65216.00
2018-08-07T14:41:14.498Z,40608.00
2018-08-07T14:42:14.767Z,10956.00
2018-08-07T14:43:14.872Z,10780.00
2018-08-07T14:44:15.029Z,11640.00
2018-08-07T14:45:15.211Z,13596.00
2018-08-07T14:46:15.382Z,12840.00
2018-08-07T14:47:15.632Z,12596.00
2018-08-07T14:48:15.818Z,12652.00
2018-08-07T14:49:15.964Z,13196.00
2018-08-07T14:50:16.150Z,14312.00
2018-08-07T14:51:16.418Z,15808.00
2018-08-07T14:52:16.434Z,18112.00
2018-08-07T14:53:16.680Z,19296.00
2018-08-07T14:54:16.803Z,61920.00
2018-08-07T14:55:17.066Z,62208.00
2018-08-07T14:56:17.192Z,65664.00
2018-08-07T14:57:17.405Z,68128.00
2018-08-07T14:58:17.564Z,66592.00
2018-08-07T14:59:17.699Z,60960.00
2018-08-07T15:00:18.002Z,57728.00
2018-08-07T15:01:18.152Z,53216.00
2018-08-07T15:02:18.276Z,57472.00
2018-08-07T15:03:18.442Z,55744.00
2018-08-07T15:04:18.590Z,54400.00
2018-08-07T15:05:18.877Z,53504.00
2018-08-07T15:06:19.099Z,51104.00
2018-08-07T15:07:19.297Z,52704.00
2018-08-07T15:08:19.365Z,17536.00
2018-08-07T15:09:19.526Z,46144.00
2018-08-07T15:10:19.716Z,23424.00
2018-08-07T15:11:19.959Z,26304.00
2018-08-07T15:12:20.291Z,48192.00
2018-08-07T15:13:20.295Z,50080.00